Flight Track Log - Related Links

Times and Time Zones

All times are in EDT time to prevent confusion due to time zone crossing. See the SKW6526 flight status page for this flight to view local times or setup timezone preferences in your user account.

Time Position Orientation Groundspeed Altitude Reporting Facility
EDT Latitude Longitude Course Direction KTS MPH feet Rate Location/Type
Sun 02:06:06 PM 33.4333 -111.9833 273° West 168 193 2,000  Level Phoenix TRACON
Sun 02:06:48 PM 33.4333 -111.9500 90° East 177 204 3,300 2,353 Climbing Phoenix TRACON
Sun 02:07:48 PM 33.4333 -111.8667 90° East 226 260 6,000 2,538 Climbing Phoenix TRACON
Sun 02:08:06 PM 33.4300 -111.8542 108° East 234 269 6,600 2,354 Climbing Albuquerque Center
Sun 02:09:00 PM 33.4388 -112.5162 273° West  Level FlightAware Approximate
Sun 02:09:07 PM 33.3767 -111.8436 171° South 237 273 9,100  Level Albuquerque Center
Sun 02:10:00 PM 33.4440 -112.6451 273° West  Level FlightAware Approximate
Sun 02:10:09 PM 33.3464 -111.9183 244° Southwest 272 313 10,900  Level Albuquerque Center
Sun 02:11:00 PM 33.4490 -112.7741 273° West  Level FlightAware Approximate
Sun 02:11:11 PM 33.3594 -112.0219 279° West 312 359 13,000  Level Albuquerque Center
Sun 02:12:13 PM 33.3722 -112.1297 278° West 325 374 15,600 2,661 Climbing Albuquerque Center
Sun 02:13:15 PM 33.3872 -112.2594 278° West 328 377 18,500 2,516 Climbing Albuquerque Center
Sun 02:14:17 PM 33.4003 -112.3686 278° West 331 381 20,800 2,081 Climbing Albuquerque Center
Sun 02:15:19 PM 33.4131 -112.4783 278° West 334 384 22,800 1,756 Climbing Albuquerque Center
Sun 02:16:20 PM 33.4261 -112.5936 278° West 347 399 24,400 1,512 Climbing Albuquerque Center
Sun 02:17:22 PM 33.4428 -112.7292 278° West 359 413 25,900 1,355 Climbing Albuquerque Center
Sun 02:18:24 PM 33.4642 -112.8506 282° West 373 429 27,200 1,403 Climbing Albuquerque Center
Sun 02:19:26 PM 33.5064 -112.9686 293° West 386 444 28,800 1,355 Climbing Albuquerque Center
Sun 02:20:28 PM 33.5481 -113.0864 293° West 385 443 30,000 1,258 Climbing Albuquerque Center
Sun 02:21:30 PM 33.5900 -113.2039 293° West 385 443 31,400 968 Climbing Albuquerque Center
Sun 02:22:32 PM 33.6356 -113.3347 293° West 389 448 32,000 290 Climbing Albuquerque Center
Sun 02:23:34 PM 33.6800 -113.4592 293° West 400 460 32,000  Level Albuquerque Center
Sun 02:24:35 PM 33.7244 -113.5842 293° West 405 466 32,000  Level Albuquerque Center
Sun 02:25:37 PM 33.7672 -113.7089 292° West 405 466 32,000  Level Albuquerque Center
Sun 02:26:39 PM 33.8169 -113.8569 292° West 400 460 32,000  Level Albuquerque Center
Sun 02:27:41 PM 33.8364 -113.9856 280° West 393 452 32,000  Level Albuquerque Center
Sun 02:28:43 PM 33.8581 -114.1158 281° West 396 456 32,000  Level Albuquerque Center
Sun 02:29:45 PM 33.8806 -114.2556 281° West 394 453 32,000  Level Albuquerque Center
Sun 02:30:47 PM 33.9006 -114.3853 281° West 395 455 32,000  Level Albuquerque Center
Sun 02:31:49 PM 33.9222 -114.5164 281° West 398 458 32,000  Level Albuquerque Center
Sun 02:33:05 PM 33.9500 -114.6856 281° West 400 460 32,000  Level Los Angeles Center
Sun 02:34:07 PM 33.9697 -114.8178 280° West 403 464 32,000  Level Los Angeles Center
Sun 02:35:21 PM 33.9903 -114.9497 281° West 402 463 32,000  Level Los Angeles Center
Sun 02:36:24 PM 34.0142 -115.1022 281° West 389 448 32,000  Level Los Angeles Center
Sun 02:37:26 PM 34.0350 -115.2483 280° West 371 427 32,000  Level Los Angeles Center
Sun 02:38:28 PM 34.0533 -115.3683 280° West 367 422 32,000  Level Los Angeles Center
Sun 02:39:31 PM 34.0703 -115.4883 280° West 365 420 32,000  Level Los Angeles Center
Sun 02:40:32 PM 34.0892 -115.6086 281° West 367 422 32,000  Level Los Angeles Center
Sun 02:41:34 PM 34.1064 -115.7289 280° West 366 421 32,000  Level Los Angeles Center
Sun 02:42:36 PM 34.0964 -115.8756 265° West 369 425 32,000 -242 Level Los Angeles Center
Sun 02:43:38 PM 34.0781 -115.9978 260° West 371 427 31,500 -1,016 Descending Los Angeles Center
Sun 02:44:40 PM 34.0606 -116.1208 260° West 374 430 29,900 -1,548 Descending Los Angeles Center
Sun 02:45:42 PM 34.0403 -116.2492 259° West 389 448 28,300 -1,597 Descending Los Angeles Center
Sun 02:46:44 PM 34.0214 -116.3775 260° West 391 450 26,600 -1,680 Descending Los Angeles Center
Sun 02:47:47 PM 34.0042 -116.5025 261° West 383 441 24,800 -2,064 Descending Los Angeles Center
Sun 02:48:49 PM 33.9931 -116.6461 265° West 365 420 22,300 -2,226 Descending Los Angeles Center
Sun 02:49:51 PM 33.9836 -116.7625 264° West 355 409 20,200 -2,032 Descending Los Angeles Center
Sun 02:50:53 PM 33.9739 -116.8753 264° West 345 397 18,100 -1,898 Descending Los Angeles Center
Sun 02:51:29 PM 33.9667 -116.9500 263° West 331 381 17,100 -688 Descending Southern California TRACON
Sun 02:52:29 PM 33.9500 -117.0667 260° West 310 357 17,000 -286 Descending Southern California TRACON
Sun 02:53:35 PM 33.9500 -117.1667 270° West 312 359 16,500 -857 Descending Southern California TRACON
Sun 02:54:35 PM 33.9333 -117.2667 259° West 297 342 15,200 -1,289 Descending Southern California TRACON
Sun 02:55:36 PM 33.9333 -117.3833 270° West 300 345 13,900 -1,190 Descending Southern California TRACON
Sun 02:56:36 PM 33.9667 -117.4667 296° West 296 341 12,800 -1,043 Descending Southern California TRACON
Sun 02:57:31 PM 34.0000 -117.5500 296° West 292 336 11,900 -1,091 Descending Southern California TRACON
Sun 02:58:37 PM 34.0167 -117.6500 281° West 323 372 10,600 -1,181 Descending Southern California TRACON
Sun 02:59:38 PM 34.0000 -117.7667 260° West 285 328 9,400 -1,289 Descending Southern California TRACON
Sun 03:00:38 PM 33.9833 -117.8500 256° West 288 331 8,000 -1,300 Descending Southern California TRACON
Sun 03:01:38 PM 33.9833 -117.9500 270° West 290 334 6,800 -1,041 Descending Southern California TRACON
Sun 03:02:39 PM 33.9667 -118.0333 256° West 249 287 5,900 -992 Descending Southern California TRACON
Sun 03:03:39 PM 33.9667 -118.1167 270° West 236 272 4,800 -1,248 Descending Southern California TRACON
Sun 03:04:20 PM 33.9592 -118.1697 260° West 239 275 3,800 -1,340 Descending Los Angeles Center
Sun 03:05:22 PM 33.9525 -118.2344 263° West 206 237 2,500 -1,258 Descending Los Angeles Center

Login

Don't have an account? Register now (free) for customized features, flight alerts, and more!